This is the latest recevied weather packets stored in our database for station/object KF7SOJ. If no packets are shown the sender has not sent any weather packets the latest 10 day(s).
| Time | Temp. | Humidity | Pressure | Rain* | Wind** | Luminosity | Snow |
|---|---|---|---|---|---|---|---|
| 1788543739 | 28.89° C | 25% | 925.9 hPa | 0 mm | - | 759 W/m² | - |
| 1788543435 | 27.78° C | 25% | 926.1 hPa | 0 mm | - | 746 W/m² | - |
| 1788543134 | 27.22° C | 26% | 926.1 hPa | 0 mm | - | 743 W/m² | - |
| 1788542831 | 26.67° C | 30% | 926 hPa | 0 mm | - | 733 W/m² | - |
| 1788542530 | 25.56° C | 30% | 925.9 hPa | 0 mm | - | 719 W/m² | - |
| 1788542225 | 26.67° C | 24% | 926 hPa | 0 mm | - | 645 W/m² | - |
| 1788541920 | 26.67° C | 24% | 925.9 hPa | 0 mm | - | 645 W/m² | - |
| 1788541617 | 26.67° C | 24% | 925.9 hPa | 0 mm | - | 645 W/m² | - |
| 1788541312 | 26.67° C | 24% | 926 hPa | 0 mm | - | 645 W/m² | - |
| 1788541011 | 26.67° C | 24% | 926 hPa | 0 mm | - | 645 W/m² | - |
| 1788540710 | 26.67° C | 24% | 925.8 hPa | 0 mm | - | 645 W/m² | - |
| 1788540405 | 26.67° C | 24% | 925.8 hPa | 0 mm | - | 643 W/m² | - |
| 1788540100 | 26.11° C | 24% | 925.8 hPa | 0 mm | - | 630 W/m² | - |
| 1788539796 | 26.11° C | 24% | 925.9 hPa | 0 mm | - | 615 W/m² | - |
| 1788539486 | 25.56° C | 24% | 926.1 hPa | 0 mm | - | 601 W/m² | - |
| 1788539185 | 25.56° C | 24% | 926 hPa | 0 mm | - | 588 W/m² | - |
| 1788538880 | 25° C | 26% | 925.9 hPa | 0 mm | - | 573 W/m² | - |
| 1788538576 | 24.44° C | 26% | 925.9 hPa | 0 mm | - | 566 W/m² | - |
| 1788538271 | 24.44° C | 25% | 925.8 hPa | 0 mm | - | 554 W/m² | - |
| 1788537966 | 23.89° C | 25% | 925.8 hPa | 0 mm | - | 550 W/m² | - |
| 1788537662 | 23.89° C | 27% | 925.9 hPa | 0 mm | - | 540 W/m² | - |
| 1788537362 | 23.89° C | 29% | 925.6 hPa | 0 mm | - | 519 W/m² | - |
| 1788537056 | 22.78° C | 30% | 925.7 hPa | 0 mm | - | 462 W/m² | - |
| 1788536749 | 22.78° C | 29% | 925.8 hPa | 0 mm | - | 484 W/m² | - |
| 1788536444 | 22.22° C | 32% | 925.8 hPa | 0 mm | - | 466 W/m² | - |
* Rain latest hour (hover to see other rain measurements)
** Current wind speed in m/s (hover to see current wind gust speed)